sensor_id;sensor_type;location;lat;lon;timestamp;temperature;humidity
44565;DHT22;30275;51.822;-0.326;2023-02-17T00:01:33;10.80;99.90
44565;DHT22;30275;51.822;-0.326;2023-02-17T00:03:58;10.80;99.90
44565;DHT22;30275;51.822;-0.326;2023-02-17T00:06:26;10.90;99.90
44565;DHT22;30275;51.822;-0.326;2023-02-17T00:08:53;10.90;99.90
44565;DHT22;30275;51.822;-0.326;2023-02-17T00:11:18;10.90;99.90
44565;DHT22;30275;51.822;-0.326;2023-02-17T00:13:45;10.90;99.90
44565;DHT22;30275;51.822;-0.326;2023-02-17T00:16:19;11.00;99.90
44565;DHT22;30275;51.822;-0.326;2023-02-17T00:18:46;11.00;99.90
44565;DHT22;30275;51.822;-0.326;2023-02-17T00:21:18;11.00;99.90
44565;DHT22;30275;51.822;-0.326;2023-02-17T00:23:45;11.10;99.90
44565;DHT22;30275;51.822;-0.326;2023-02-17T00:26:11;11.10;99.90
44565;DHT22;30275;51.822;-0.326;2023-02-17T00:28:37;11.10;99.90
44565;DHT22;30275;51.822;-0.326;2023-02-17T00:31:12;11.20;99.90
44565;DHT22;30275;51.822;-0.326;2023-02-17T00:33:39;11.30;99.90
44565;DHT22;30275;51.822;-0.326;2023-02-17T00:36:06;11.30;99.90
44565;DHT22;30275;51.822;-0.326;2023-02-17T00:38:33;11.30;99.90
44565;DHT22;30275;51.822;-0.326;2023-02-17T00:40:58;11.30;99.90
44565;DHT22;30275;51.822;-0.326;2023-02-17T00:43:24;11.30;99.90
44565;DHT22;30275;51.822;-0.326;2023-02-17T00:45:50;11.30;99.90
44565;DHT22;30275;51.822;-0.326;2023-02-17T00:48:15;11.30;99.90
44565;DHT22;30275;51.822;-0.326;2023-02-17T00:50:41;11.30;99.90
44565;DHT22;30275;51.822;-0.326;2023-02-17T00:53:07;11.30;99.90
44565;DHT22;30275;51.822;-0.326;2023-02-17T00:55:32;11.30;99.90
44565;DHT22;30275;51.822;-0.326;2023-02-17T00:57:58;11.30;99.90
44565;DHT22;30275;51.822;-0.326;2023-02-17T01:00:24;11.40;99.90
44565;DHT22;30275;51.822;-0.326;2023-02-17T01:02:49;11.40;99.90
44565;DHT22;30275;51.822;-0.326;2023-02-17T01:05:15;11.40;99.90
44565;DHT22;30275;51.822;-0.326;2023-02-17T01:07:40;11.30;99.90
44565;DHT22;30275;51.822;-0.326;2023-02-17T01:10:08;11.40;99.90
44565;DHT22;30275;51.822;-0.326;2023-02-17T01:12:33;11.40;99.90
44565;DHT22;30275;51.822;-0.326;2023-02-17T01:15:00;11.50;99.90
44565;DHT22;30275;51.822;-0.326;2023-02-17T01:17:25;11.50;99.90
44565;DHT22;30275;51.822;-0.326;2023-02-17T01:19:51;11.40;99.90
44565;DHT22;30275;51.822;-0.326;2023-02-17T01:22:17;11.50;99.90
44565;DHT22;30275;51.822;-0.326;2023-02-17T01:24:42;11.50;99.90
44565;DHT22;30275;51.822;-0.326;2023-02-17T01:27:08;11.60;99.90
44565;DHT22;30275;51.822;-0.326;2023-02-17T01:29:34;11.50;99.90
44565;DHT22;30275;51.822;-0.326;2023-02-17T01:31:59;11.50;99.90
44565;DHT22;30275;51.822;-0.326;2023-02-17T01:34:25;11.60;99.90
44565;DHT22;30275;51.822;-0.326;2023-02-17T01:36:50;11.50;99.90
44565;DHT22;30275;51.822;-0.326;2023-02-17T01:39:16;11.60;99.90
44565;DHT22;30275;51.822;-0.326;2023-02-17T01:41:42;11.50;99.90
44565;DHT22;30275;51.822;-0.326;2023-02-17T01:46:38;11.60;99.90
44565;DHT22;30275;51.822;-0.326;2023-02-17T01:49:50;11.70;99.90
44565;DHT22;30275;51.822;-0.326;2023-02-17T01:52:07;11.70;99.90
44565;DHT22;30275;51.822;-0.326;2023-02-17T01:55:02;11.70;99.90
44565;DHT22;30275;51.822;-0.326;2023-02-17T01:57:29;11.70;99.90
44565;DHT22;30275;51.822;-0.326;2023-02-17T01:59:55;11.70;99.90
44565;DHT22;30275;51.822;-0.326;2023-02-17T02:02:22;11.60;99.90
44565;DHT22;30275;51.822;-0.326;2023-02-17T02:04:51;11.60;99.90
44565;DHT22;30275;51.822;-0.326;2023-02-17T02:07:20;11.60;99.90
44565;DHT22;30275;51.822;-0.326;2023-02-17T02:09:53;11.60;99.90
44565;DHT22;30275;51.822;-0.326;2023-02-17T02:12:25;11.60;99.90
44565;DHT22;30275;51.822;-0.326;2023-02-17T02:14:51;11.60;99.90
44565;DHT22;30275;51.822;-0.326;2023-02-17T02:17:28;11.60;99.90
44565;DHT22;30275;51.822;-0.326;2023-02-17T02:20:02;11.60;99.90
44565;DHT22;30275;51.822;-0.326;2023-02-17T02:39:20;11.70;99.90
44565;DHT22;30275;51.822;-0.326;2023-02-17T02:41:52;11.70;99.90
44565;DHT22;30275;51.822;-0.326;2023-02-17T02:44:20;11.70;99.90
44565;DHT22;30275;51.822;-0.326;2023-02-17T02:47:03;11.70;99.90
44565;DHT22;30275;51.822;-0.326;2023-02-17T02:49:31;11.70;99.90
44565;DHT22;30275;51.822;-0.326;2023-02-17T02:52:13;11.70;99.90
44565;DHT22;30275;51.822;-0.326;2023-02-17T02:55:14;11.70;99.90
44565;DHT22;30275;51.822;-0.326;2023-02-17T03:02:50;11.60;99.90
44565;DHT22;30275;51.822;-0.326;2023-02-17T03:08:22;11.50;99.90
44565;DHT22;30275;51.822;-0.326;2023-02-17T03:10:52;11.50;99.90
44565;DHT22;30275;51.822;-0.326;2023-02-17T03:13:19;11.50;99.90
44565;DHT22;30275;51.822;-0.326;2023-02-17T03:15:45;11.50;99.90
44565;DHT22;30275;51.822;-0.326;2023-02-17T03:18:11;11.50;99.90
44565;DHT22;30275;51.822;-0.326;2023-02-17T03:20:41;11.50;99.90
44565;DHT22;30275;51.822;-0.326;2023-02-17T03:23:08;11.40;99.90
44565;DHT22;30275;51.822;-0.326;2023-02-17T03:25:34;11.40;99.90
44565;DHT22;30275;51.822;-0.326;2023-02-17T03:27:59;11.30;99.90
44565;DHT22;30275;51.822;-0.326;2023-02-17T03:30:25;11.30;99.90
44565;DHT22;30275;51.822;-0.326;2023-02-17T03:32:51;11.40;99.90
44565;DHT22;30275;51.822;-0.326;2023-02-17T03:35:16;11.30;99.90
44565;DHT22;30275;51.822;-0.326;2023-02-17T03:37:42;11.30;99.90
44565;DHT22;30275;51.822;-0.326;2023-02-17T03:40:08;11.40;99.90
44565;DHT22;30275;51.822;-0.326;2023-02-17T03:42:37;11.40;99.90
44565;DHT22;30275;51.822;-0.326;2023-02-17T03:45:03;11.40;99.90
44565;DHT22;30275;51.822;-0.326;2023-02-17T03:47:29;11.40;99.90
44565;DHT22;30275;51.822;-0.326;2023-02-17T03:49:54;11.40;99.90
44565;DHT22;30275;51.822;-0.326;2023-02-17T03:52:20;11.40;99.90
44565;DHT22;30275;51.822;-0.326;2023-02-17T03:54:46;11.40;99.90
44565;DHT22;30275;51.822;-0.326;2023-02-17T03:57:11;11.30;99.90
44565;DHT22;30275;51.822;-0.326;2023-02-17T03:59:37;11.30;99.90
44565;DHT22;30275;51.822;-0.326;2023-02-17T04:02:03;11.30;99.90
44565;DHT22;30275;51.822;-0.326;2023-02-17T04:04:28;11.20;99.90
44565;DHT22;30275;51.822;-0.326;2023-02-17T04:06:54;11.20;99.90
44565;DHT22;30275;51.822;-0.326;2023-02-17T04:09:20;11.20;99.90
44565;DHT22;30275;51.822;-0.326;2023-02-17T04:11:45;11.20;99.90
44565;DHT22;30275;51.822;-0.326;2023-02-17T04:14:11;11.10;99.90
44565;DHT22;30275;51.822;-0.326;2023-02-17T04:16:36;11.10;99.90
44565;DHT22;30275;51.822;-0.326;2023-02-17T04:19:05;11.00;99.90
44565;DHT22;30275;51.822;-0.326;2023-02-17T04:21:30;11.00;99.90
44565;DHT22;30275;51.822;-0.326;2023-02-17T04:23:56;11.00;99.90
44565;DHT22;30275;51.822;-0.326;2023-02-17T04:26:22;10.90;99.90
44565;DHT22;30275;51.822;-0.326;2023-02-17T04:28:47;10.90;99.90
44565;DHT22;30275;51.822;-0.326;2023-02-17T04:31:13;10.90;99.90
44565;DHT22;30275;51.822;-0.326;2023-02-17T04:33:38;10.80;99.90
44565;DHT22;30275;51.822;-0.326;2023-02-17T04:36:04;10.80;99.90
44565;DHT22;30275;51.822;-0.326;2023-02-17T04:38:31;10.80;99.90
44565;DHT22;30275;51.822;-0.326;2023-02-17T04:40:58;10.80;99.90
44565;DHT22;30275;51.822;-0.326;2023-02-17T04:43:25;10.80;99.90
44565;DHT22;30275;51.822;-0.326;2023-02-17T04:45:52;10.70;99.90
44565;DHT22;30275;51.822;-0.326;2023-02-17T04:48:18;10.70;99.90
44565;DHT22;30275;51.822;-0.326;2023-02-17T04:50:44;10.70;99.90
44565;DHT22;30275;51.822;-0.326;2023-02-17T04:53:10;10.80;99.90
44565;DHT22;30275;51.822;-0.326;2023-02-17T04:55:35;10.70;99.90
44565;DHT22;30275;51.822;-0.326;2023-02-17T04:58:01;10.70;99.90
44565;DHT22;30275;51.822;-0.326;2023-02-17T05:00:27;10.70;99.90
44565;DHT22;30275;51.822;-0.326;2023-02-17T05:02:52;10.70;99.90
44565;DHT22;30275;51.822;-0.326;2023-02-17T05:05:18;10.70;99.90
44565;DHT22;30275;51.822;-0.326;2023-02-17T05:07:45;10.70;99.90
44565;DHT22;30275;51.822;-0.326;2023-02-17T05:10:17;10.60;99.90
44565;DHT22;30275;51.822;-0.326;2023-02-17T05:12:43;10.60;99.90
44565;DHT22;30275;51.822;-0.326;2023-02-17T05:15:09;10.60;99.90
44565;DHT22;30275;51.822;-0.326;2023-02-17T05:17:36;10.50;99.90
44565;DHT22;30275;51.822;-0.326;2023-02-17T05:20:02;10.50;99.90
44565;DHT22;30275;51.822;-0.326;2023-02-17T05:22:27;10.50;99.90
44565;DHT22;30275;51.822;-0.326;2023-02-17T05:24:53;10.50;99.90
44565;DHT22;30275;51.822;-0.326;2023-02-17T05:27:19;10.50;99.90
44565;DHT22;30275;51.822;-0.326;2023-02-17T05:29:44;10.50;99.90
44565;DHT22;30275;51.822;-0.326;2023-02-17T05:32:10;10.50;99.90
44565;DHT22;30275;51.822;-0.326;2023-02-17T05:34:36;10.50;99.90
44565;DHT22;30275;51.822;-0.326;2023-02-17T05:37:02;10.50;99.90
44565;DHT22;30275;51.822;-0.326;2023-02-17T05:39:28;10.50;99.90
44565;DHT22;30275;51.822;-0.326;2023-02-17T05:41:53;10.50;99.90
44565;DHT22;30275;51.822;-0.326;2023-02-17T05:44:19;10.50;99.90
44565;DHT22;30275;51.822;-0.326;2023-02-17T05:46:45;10.50;99.90
44565;DHT22;30275;51.822;-0.326;2023-02-17T05:49:10;10.50;99.90
44565;DHT22;30275;51.822;-0.326;2023-02-17T05:51:36;10.50;99.90
44565;DHT22;30275;51.822;-0.326;2023-02-17T05:54:02;10.50;99.90
44565;DHT22;30275;51.822;-0.326;2023-02-17T05:56:28;10.50;99.90
44565;DHT22;30275;51.822;-0.326;2023-02-17T05:58:54;10.50;99.90
44565;DHT22;30275;51.822;-0.326;2023-02-17T06:01:19;10.50;99.90
44565;DHT22;30275;51.822;-0.326;2023-02-17T06:03:45;10.50;99.90
44565;DHT22;30275;51.822;-0.326;2023-02-17T06:06:11;10.50;99.90
44565;DHT22;30275;51.822;-0.326;2023-02-17T06:08:36;10.50;99.90
44565;DHT22;30275;51.822;-0.326;2023-02-17T06:11:02;10.50;99.90
44565;DHT22;30275;51.822;-0.326;2023-02-17T06:13:28;10.50;99.90
44565;DHT22;30275;51.822;-0.326;2023-02-17T06:15:54;10.40;99.90
44565;DHT22;30275;51.822;-0.326;2023-02-17T06:18:19;10.50;99.90
44565;DHT22;30275;51.822;-0.326;2023-02-17T06:20:45;10.50;99.90
44565;DHT22;30275;51.822;-0.326;2023-02-17T06:23:10;10.50;99.90
44565;DHT22;30275;51.822;-0.326;2023-02-17T06:25:36;10.40;99.90
44565;DHT22;30275;51.822;-0.326;2023-02-17T06:28:02;10.40;99.90
44565;DHT22;30275;51.822;-0.326;2023-02-17T06:30:28;10.50;99.90
44565;DHT22;30275;51.822;-0.326;2023-02-17T06:32:54;10.50;99.90
44565;DHT22;30275;51.822;-0.326;2023-02-17T06:35:19;10.50;99.90
44565;DHT22;30275;51.822;-0.326;2023-02-17T06:37:45;10.50;99.90
44565;DHT22;30275;51.822;-0.326;2023-02-17T06:40:11;10.50;99.90
44565;DHT22;30275;51.822;-0.326;2023-02-17T06:42:37;10.50;99.90
44565;DHT22;30275;51.822;-0.326;2023-02-17T06:45:03;10.50;99.90
44565;DHT22;30275;51.822;-0.326;2023-02-17T06:47:33;10.60;99.90
44565;DHT22;30275;51.822;-0.326;2023-02-17T06:50:00;10.60;99.90
44565;DHT22;30275;51.822;-0.326;2023-02-17T06:52:25;10.70;99.90
44565;DHT22;30275;51.822;-0.326;2023-02-17T06:54:51;10.60;99.90
44565;DHT22;30275;51.822;-0.326;2023-02-17T06:57:17;10.60;99.90
44565;DHT22;30275;51.822;-0.326;2023-02-17T06:59:43;10.70;99.90
44565;DHT22;30275;51.822;-0.326;2023-02-17T07:02:10;10.70;99.90
44565;DHT22;30275;51.822;-0.326;2023-02-17T07:04:37;10.60;99.90
44565;DHT22;30275;51.822;-0.326;2023-02-17T07:07:03;10.70;99.90
44565;DHT22;30275;51.822;-0.326;2023-02-17T07:09:29;10.70;99.90
44565;DHT22;30275;51.822;-0.326;2023-02-17T07:11:55;10.70;99.90
44565;DHT22;30275;51.822;-0.326;2023-02-17T07:14:22;10.70;99.90
44565;DHT22;30275;51.822;-0.326;2023-02-17T07:16:48;10.80;99.90
44565;DHT22;30275;51.822;-0.326;2023-02-17T07:19:13;10.80;99.90
44565;DHT22;30275;51.822;-0.326;2023-02-17T07:21:39;10.80;99.90
44565;DHT22;30275;51.822;-0.326;2023-02-17T07:24:05;10.80;99.90
44565;DHT22;30275;51.822;-0.326;2023-02-17T07:26:30;10.90;99.90
44565;DHT22;30275;51.822;-0.326;2023-02-17T07:28:56;10.90;99.90
44565;DHT22;30275;51.822;-0.326;2023-02-17T07:31:22;10.90;99.90
44565;DHT22;30275;51.822;-0.326;2023-02-17T07:33:47;10.90;99.90
44565;DHT22;30275;51.822;-0.326;2023-02-17T07:36:15;11.00;99.90
44565;DHT22;30275;51.822;-0.326;2023-02-17T07:38:41;10.90;99.90
44565;DHT22;30275;51.822;-0.326;2023-02-17T07:41:09;11.00;99.90
44565;DHT22;30275;51.822;-0.326;2023-02-17T07:43:35;11.00;99.90
44565;DHT22;30275;51.822;-0.326;2023-02-17T07:46:01;11.00;99.90
44565;DHT22;30275;51.822;-0.326;2023-02-17T07:48:27;11.00;99.90
44565;DHT22;30275;51.822;-0.326;2023-02-17T07:50:53;11.00;99.90
44565;DHT22;30275;51.822;-0.326;2023-02-17T07:53:18;11.00;99.90
44565;DHT22;30275;51.822;-0.326;2023-02-17T07:55:44;11.00;99.90
44565;DHT22;30275;51.822;-0.326;2023-02-17T07:58:10;11.00;99.90
44565;DHT22;30275;51.822;-0.326;2023-02-17T08:00:35;11.00;99.90
44565;DHT22;30275;51.822;-0.326;2023-02-17T08:03:01;11.10;99.90
44565;DHT22;30275;51.822;-0.326;2023-02-17T08:05:26;11.10;99.90
44565;DHT22;30275;51.822;-0.326;2023-02-17T08:07:52;11.10;99.90
44565;DHT22;30275;51.822;-0.326;2023-02-17T08:10:38;11.10;99.90
44565;DHT22;30275;51.822;-0.326;2023-02-17T08:13:24;11.20;99.90
44565;DHT22;30275;51.822;-0.326;2023-02-17T08:15:50;11.20;99.90
44565;DHT22;30275;51.822;-0.326;2023-02-17T08:18:16;11.30;99.90
44565;DHT22;30275;51.822;-0.326;2023-02-17T08:20:41;11.30;99.90
44565;DHT22;30275;51.822;-0.326;2023-02-17T08:23:07;11.40;99.90
44565;DHT22;30275;51.822;-0.326;2023-02-17T08:25:34;11.40;99.90
44565;DHT22;30275;51.822;-0.326;2023-02-17T08:28:00;11.50;99.90
44565;DHT22;30275;51.822;-0.326;2023-02-17T08:30:26;11.50;99.90
44565;DHT22;30275;51.822;-0.326;2023-02-17T08:32:52;11.60;99.90
44565;DHT22;30275;51.822;-0.326;2023-02-17T08:35:17;11.60;99.90
44565;DHT22;30275;51.822;-0.326;2023-02-17T08:37:47;11.70;99.90
44565;DHT22;30275;51.822;-0.326;2023-02-17T08:40:13;11.70;99.90
44565;DHT22;30275;51.822;-0.326;2023-02-17T08:42:39;11.80;99.90
44565;DHT22;30275;51.822;-0.326;2023-02-17T08:45:05;11.80;99.90
44565;DHT22;30275;51.822;-0.326;2023-02-17T08:47:31;11.80;99.90
44565;DHT22;30275;51.822;-0.326;2023-02-17T08:49:56;11.90;99.90
44565;DHT22;30275;51.822;-0.326;2023-02-17T08:52:22;12.00;99.90
44565;DHT22;30275;51.822;-0.326;2023-02-17T08:54:48;12.00;99.90
44565;DHT22;30275;51.822;-0.326;2023-02-17T08:57:13;12.00;99.90
44565;DHT22;30275;51.822;-0.326;2023-02-17T08:59:39;11.90;99.90
44565;DHT22;30275;51.822;-0.326;2023-02-17T09:02:04;11.90;99.90
44565;DHT22;30275;51.822;-0.326;2023-02-17T09:04:30;12.00;99.90
44565;DHT22;30275;51.822;-0.326;2023-02-17T09:06:56;12.20;99.90
44565;DHT22;30275;51.822;-0.326;2023-02-17T09:09:24;12.10;99.90
44565;DHT22;30275;51.822;-0.326;2023-02-17T09:11:55;12.10;99.90
44565;DHT22;30275;51.822;-0.326;2023-02-17T09:14:21;12.00;99.90
44565;DHT22;30275;51.822;-0.326;2023-02-17T09:16:50;12.10;99.90
44565;DHT22;30275;51.822;-0.326;2023-02-17T09:19:16;12.10;99.90
44565;DHT22;30275;51.822;-0.326;2023-02-17T09:21:42;12.10;99.90
44565;DHT22;30275;51.822;-0.326;2023-02-17T09:24:08;12.20;99.90
44565;DHT22;30275;51.822;-0.326;2023-02-17T09:26:33;12.20;99.90
44565;DHT22;30275;51.822;-0.326;2023-02-17T09:29:00;12.20;99.90
44565;DHT22;30275;51.822;-0.326;2023-02-17T09:31:28;12.20;99.90
44565;DHT22;30275;51.822;-0.326;2023-02-17T09:33:54;12.70;99.90
44565;DHT22;30275;51.822;-0.326;2023-02-17T09:36:25;12.60;99.90
44565;DHT22;30275;51.822;-0.326;2023-02-17T09:38:52;12.80;99.90
44565;DHT22;30275;51.822;-0.326;2023-02-17T09:41:44;12.60;99.90
44565;DHT22;30275;51.822;-0.326;2023-02-17T09:47:19;12.90;99.90
44565;DHT22;30275;51.822;-0.326;2023-02-17T09:49:50;13.20;99.90
44565;DHT22;30275;51.822;-0.326;2023-02-17T09:55:05;13.30;99.90
44565;DHT22;30275;51.822;-0.326;2023-02-17T10:00:13;13.00;99.90
44565;DHT22;30275;51.822;-0.326;2023-02-17T10:02:58;13.20;99.90
44565;DHT22;30275;51.822;-0.326;2023-02-17T10:05:29;13.00;99.90
44565;DHT22;30275;51.822;-0.326;2023-02-17T10:08:02;13.10;99.90
44565;DHT22;30275;51.822;-0.326;2023-02-17T10:10:37;12.90;99.90
44565;DHT22;30275;51.822;-0.326;2023-02-17T10:13:04;13.00;99.90
44565;DHT22;30275;51.822;-0.326;2023-02-17T10:15:35;13.10;99.90
44565;DHT22;30275;51.822;-0.326;2023-02-17T10:18:18;13.20;99.90
44565;DHT22;30275;51.822;-0.326;2023-02-17T10:21:01;13.40;99.90
44565;DHT22;30275;51.822;-0.326;2023-02-17T10:23:29;13.70;99.90
44565;DHT22;30275;51.822;-0.326;2023-02-17T10:34:35;14.90;99.90
44565;DHT22;30275;51.822;-0.326;2023-02-17T10:37:04;15.00;99.90
44565;DHT22;30275;51.822;-0.326;2023-02-17T10:42:30;15.80;99.90
44565;DHT22;30275;51.822;-0.326;2023-02-17T10:47:44;16.40;99.90
44565;DHT22;30275;51.822;-0.326;2023-02-17T10:50:21;16.60;99.90
44565;DHT22;30275;51.822;-0.326;2023-02-17T10:52:48;15.90;99.90
44565;DHT22;30275;51.822;-0.326;2023-02-17T10:55:30;16.00;99.90
44565;DHT22;30275;51.822;-0.326;2023-02-17T10:58:49;16.10;99.90
44565;DHT22;30275;51.822;-0.326;2023-02-17T11:00:52;16.50;99.90
44565;DHT22;30275;51.822;-0.326;2023-02-17T11:03:24;17.10;99.90
44565;DHT22;30275;51.822;-0.326;2023-02-17T11:05:54;17.30;99.90
44565;DHT22;30275;51.822;-0.326;2023-02-17T11:08:43;17.20;99.90
44565;DHT22;30275;51.822;-0.326;2023-02-17T11:11:19;16.10;99.90
44565;DHT22;30275;51.822;-0.326;2023-02-17T11:16:36;15.40;99.90
44565;DHT22;30275;51.822;-0.326;2023-02-17T11:19:04;15.50;99.90
44565;DHT22;30275;51.822;-0.326;2023-02-17T11:21:30;15.30;99.90
44565;DHT22;30275;51.822;-0.326;2023-02-17T11:23:59;14.80;99.90
44565;DHT22;30275;51.822;-0.326;2023-02-17T11:26:30;14.70;99.90
44565;DHT22;30275;51.822;-0.326;2023-02-17T11:29:17;15.60;99.90
44565;DHT22;30275;51.822;-0.326;2023-02-17T11:31:56;15.70;99.90
44565;DHT22;30275;51.822;-0.326;2023-02-17T11:34:26;15.50;99.90
44565;DHT22;30275;51.822;-0.326;2023-02-17T11:37:01;15.40;99.90
44565;DHT22;30275;51.822;-0.326;2023-02-17T11:39:28;15.30;99.90
44565;DHT22;30275;51.822;-0.326;2023-02-17T11:41:53;15.10;99.90
44565;DHT22;30275;51.822;-0.326;2023-02-17T11:44:24;15.40;99.90
44565;DHT22;30275;51.822;-0.326;2023-02-17T11:49:26;16.10;99.90
44565;DHT22;30275;51.822;-0.326;2023-02-17T11:52:11;15.90;99.90
44565;DHT22;30275;51.822;-0.326;2023-02-17T12:00:15;16.80;99.90
44565;DHT22;30275;51.822;-0.326;2023-02-17T12:06:13;16.80;99.90
44565;DHT22;30275;51.822;-0.326;2023-02-17T12:14:53;16.70;99.90
44565;DHT22;30275;51.822;-0.326;2023-02-17T12:23:21;17.80;99.90
44565;DHT22;30275;51.822;-0.326;2023-02-17T12:26:58;17.20;99.90
44565;DHT22;30275;51.822;-0.326;2023-02-17T12:35:00;16.00;99.90
44565;DHT22;30275;51.822;-0.326;2023-02-17T12:37:31;16.10;99.90
44565;DHT22;30275;51.822;-0.326;2023-02-17T12:40:03;16.20;99.90
44565;DHT22;30275;51.822;-0.326;2023-02-17T12:42:37;16.40;99.90
44565;DHT22;30275;51.822;-0.326;2023-02-17T12:45:34;16.20;99.90
44565;DHT22;30275;51.822;-0.326;2023-02-17T12:48:09;15.70;99.90
44565;DHT22;30275;51.822;-0.326;2023-02-17T12:50:38;16.30;99.90
44565;DHT22;30275;51.822;-0.326;2023-02-17T12:53:11;16.40;99.90
44565;DHT22;30275;51.822;-0.326;2023-02-17T12:55:42;16.20;99.90
44565;DHT22;30275;51.822;-0.326;2023-02-17T12:58:19;15.80;99.90
44565;DHT22;30275;51.822;-0.326;2023-02-17T13:00:49;15.80;99.90
44565;DHT22;30275;51.822;-0.326;2023-02-17T13:03:17;15.50;99.90
44565;DHT22;30275;51.822;-0.326;2023-02-17T13:08:27;15.20;99.90
44565;DHT22;30275;51.822;-0.326;2023-02-17T13:11:03;15.80;99.90
44565;DHT22;30275;51.822;-0.326;2023-02-17T13:13:31;15.80;99.90
44565;DHT22;30275;51.822;-0.326;2023-02-17T13:16:09;15.40;99.90
44565;DHT22;30275;51.822;-0.326;2023-02-17T13:18:47;15.20;99.90
44565;DHT22;30275;51.822;-0.326;2023-02-17T13:24:00;15.20;99.90
44565;DHT22;30275;51.822;-0.326;2023-02-17T13:26:31;15.50;99.90
44565;DHT22;30275;51.822;-0.326;2023-02-17T13:29:20;15.60;99.90
44565;DHT22;30275;51.822;-0.326;2023-02-17T13:32:02;15.60;99.90
44565;DHT22;30275;51.822;-0.326;2023-02-17T13:37:01;15.30;99.90
44565;DHT22;30275;51.822;-0.326;2023-02-17T13:39:33;15.40;99.90
44565;DHT22;30275;51.822;-0.326;2023-02-17T13:42:00;15.40;99.90
44565;DHT22;30275;51.822;-0.326;2023-02-17T13:44:31;15.40;99.90
44565;DHT22;30275;51.822;-0.326;2023-02-17T13:47:20;15.30;99.90
44565;DHT22;30275;51.822;-0.326;2023-02-17T13:49:53;15.30;99.90
44565;DHT22;30275;51.822;-0.326;2023-02-17T13:52:25;15.40;99.90
44565;DHT22;30275;51.822;-0.326;2023-02-17T13:54:52;15.50;99.90
44565;DHT22;30275;51.822;-0.326;2023-02-17T13:59:48;15.20;99.90
44565;DHT22;30275;51.822;-0.326;2023-02-17T14:02:18;15.00;99.90
44565;DHT22;30275;51.822;-0.326;2023-02-17T14:04:45;15.00;99.90
44565;DHT22;30275;51.822;-0.326;2023-02-17T14:07:11;15.00;99.90
44565;DHT22;30275;51.822;-0.326;2023-02-17T14:09:37;15.20;99.90
44565;DHT22;30275;51.822;-0.326;2023-02-17T14:12:05;15.40;99.90
44565;DHT22;30275;51.822;-0.326;2023-02-17T14:14:34;15.60;99.90
44565;DHT22;30275;51.822;-0.326;2023-02-17T14:19:28;15.60;99.90
44565;DHT22;30275;51.822;-0.326;2023-02-17T14:22:01;15.20;99.90
44565;DHT22;30275;51.822;-0.326;2023-02-17T14:24:35;15.30;99.90
44565;DHT22;30275;51.822;-0.326;2023-02-17T14:27:09;15.70;99.90
44565;DHT22;30275;51.822;-0.326;2023-02-17T14:29:43;16.10;99.90
44565;DHT22;30275;51.822;-0.326;2023-02-17T14:32:29;16.10;99.90
44565;DHT22;30275;51.822;-0.326;2023-02-17T14:37:36;15.30;99.90
44565;DHT22;30275;51.822;-0.326;2023-02-17T14:40:04;15.10;99.90
44565;DHT22;30275;51.822;-0.326;2023-02-17T14:42:30;14.90;99.90
44565;DHT22;30275;51.822;-0.326;2023-02-17T14:44:56;14.80;99.90
44565;DHT22;30275;51.822;-0.326;2023-02-17T14:47:21;14.90;99.90
44565;DHT22;30275;51.822;-0.326;2023-02-17T14:49:47;15.00;99.90
44565;DHT22;30275;51.822;-0.326;2023-02-17T14:52:23;14.70;99.90
44565;DHT22;30275;51.822;-0.326;2023-02-17T14:54:49;14.60;99.90
44565;DHT22;30275;51.822;-0.326;2023-02-17T14:57:16;14.60;99.90
44565;DHT22;30275;51.822;-0.326;2023-02-17T14:59:43;14.50;99.90
44565;DHT22;30275;51.822;-0.326;2023-02-17T15:02:14;14.40;99.90
44565;DHT22;30275;51.822;-0.326;2023-02-17T15:04:40;14.40;99.90
44565;DHT22;30275;51.822;-0.326;2023-02-17T15:07:12;14.40;99.90
44565;DHT22;30275;51.822;-0.326;2023-02-17T15:09:38;14.50;99.90
44565;DHT22;30275;51.822;-0.326;2023-02-17T15:12:21;14.50;99.90
44565;DHT22;30275;51.822;-0.326;2023-02-17T15:14:46;14.50;99.90
44565;DHT22;30275;51.822;-0.326;2023-02-17T15:17:13;14.40;99.90
44565;DHT22;30275;51.822;-0.326;2023-02-17T15:19:39;14.30;99.90
44565;DHT22;30275;51.822;-0.326;2023-02-17T15:22:05;14.30;99.90
44565;DHT22;30275;51.822;-0.326;2023-02-17T15:24:33;14.40;99.90
44565;DHT22;30275;51.822;-0.326;2023-02-17T15:27:00;14.70;99.90
44565;DHT22;30275;51.822;-0.326;2023-02-17T15:29:27;14.80;99.90
44565;DHT22;30275;51.822;-0.326;2023-02-17T15:31:54;14.90;99.90
44565;DHT22;30275;51.822;-0.326;2023-02-17T15:34:24;15.00;99.90
44565;DHT22;30275;51.822;-0.326;2023-02-17T15:36:50;15.00;99.90
44565;DHT22;30275;51.822;-0.326;2023-02-17T15:39:19;15.00;99.90
44565;DHT22;30275;51.822;-0.326;2023-02-17T15:41:47;14.90;99.90
44565;DHT22;30275;51.822;-0.326;2023-02-17T15:44:22;14.80;99.90
44565;DHT22;30275;51.822;-0.326;2023-02-17T15:46:50;14.70;99.90
44565;DHT22;30275;51.822;-0.326;2023-02-17T15:49:16;14.60;99.90
44565;DHT22;30275;51.822;-0.326;2023-02-17T15:51:42;14.50;99.90
44565;DHT22;30275;51.822;-0.326;2023-02-17T15:54:08;14.30;99.90
44565;DHT22;30275;51.822;-0.326;2023-02-17T15:56:39;14.20;99.90
44565;DHT22;30275;51.822;-0.326;2023-02-17T15:59:10;14.20;99.90
44565;DHT22;30275;51.822;-0.326;2023-02-17T16:01:37;14.00;99.90
44565;DHT22;30275;51.822;-0.326;2023-02-17T16:04:02;14.00;99.90
44565;DHT22;30275;51.822;-0.326;2023-02-17T16:06:29;13.90;99.90
44565;DHT22;30275;51.822;-0.326;2023-02-17T16:08:54;13.90;99.90
44565;DHT22;30275;51.822;-0.326;2023-02-17T16:11:23;13.80;99.90
44565;DHT22;30275;51.822;-0.326;2023-02-17T16:13:49;13.70;99.90
44565;DHT22;30275;51.822;-0.326;2023-02-17T16:16:22;13.60;99.90
44565;DHT22;30275;51.822;-0.326;2023-02-17T16:18:49;13.50;99.90
44565;DHT22;30275;51.822;-0.326;2023-02-17T16:21:15;13.50;99.90
44565;DHT22;30275;51.822;-0.326;2023-02-17T16:23:42;13.50;99.90
44565;DHT22;30275;51.822;-0.326;2023-02-17T16:26:28;13.40;99.90
44565;DHT22;30275;51.822;-0.326;2023-02-17T16:28:54;13.40;99.90
44565;DHT22;30275;51.822;-0.326;2023-02-17T16:31:20;13.30;99.90
44565;DHT22;30275;51.822;-0.326;2023-02-17T16:33:45;13.30;99.90
44565;DHT22;30275;51.822;-0.326;2023-02-17T16:36:16;13.30;99.90
44565;DHT22;30275;51.822;-0.326;2023-02-17T16:38:43;13.20;99.90
44565;DHT22;30275;51.822;-0.326;2023-02-17T16:41:13;13.20;99.90
44565;DHT22;30275;51.822;-0.326;2023-02-17T16:43:40;13.20;99.90
44565;DHT22;30275;51.822;-0.326;2023-02-17T16:46:06;13.10;99.90
44565;DHT22;30275;51.822;-0.326;2023-02-17T16:48:41;13.00;99.90
44565;DHT22;30275;51.822;-0.326;2023-02-17T16:51:06;12.90;99.90
44565;DHT22;30275;51.822;-0.326;2023-02-17T16:53:32;12.90;99.90
44565;DHT22;30275;51.822;-0.326;2023-02-17T16:55:58;12.80;99.90
44565;DHT22;30275;51.822;-0.326;2023-02-17T16:58:25;12.80;99.90
44565;DHT22;30275;51.822;-0.326;2023-02-17T17:00:52;12.70;99.90
44565;DHT22;30275;51.822;-0.326;2023-02-17T17:03:19;12.60;99.90